Time;durP1;ratioP1;P1;durP2;ratioP2;P2;SDS_P1;SDS_P2;PMS_P1;PMS_P2;Temp;Humidity;BMP_temperature;BMP_pressure;BME280_temperature;BME280_humidity;BME280_pressure;Samples;Min_cycle;Max_cycle;Signal;HPM_P1;HPM_P2
2021/12/15 00:00:50;;;;;;;38.50;24.70;;;;;;;;;;5072244;28;20214;-58
2021/12/15 00:03:16;;;;;;;37.33;24.40;;;;;;;;;;5072090;28;20204;-58
2021/12/15 00:05:42;;;;;;;46.93;25.87;;;;;;;;;;5072160;28;20578;-59
2021/12/15 00:08:11;;;;;;;37.03;24.53;;;;;;;;;;5071997;28;20200;-58
2021/12/15 00:10:38;;;;;;;43.03;24.20;;;;;;;;;;5072183;28;20227;-58
2021/12/15 00:13:04;;;;;;;41.00;25.80;;;;;;;;;;5071984;28;20207;-59
2021/12/15 00:15:31;;;;;;;37.43;24.43;;;;;;;;;;5072852;28;20286;-60
2021/12/15 00:17:58;;;;;;;34.63;23.50;;;;;;;;;;5076052;28;20572;-60
2021/12/15 00:20:24;;;;;;;34.27;22.97;;;;;;;;;;5075446;28;20206;-60
2021/12/15 00:22:52;;;;;;;39.63;24.00;;;;;;;;;;5075600;28;20237;-61
2021/12/15 00:25:19;;;;;;;36.10;23.83;;;;;;;;;;5075625;28;20200;-60
2021/12/15 00:27:45;;;;;;;34.57;23.33;;;;;;;;;;5075875;28;20195;-60
2021/12/15 00:30:11;;;;;;;35.00;23.50;;;;;;;;;;5075380;28;20230;-59
2021/12/15 00:32:39;;;;;;;35.40;23.97;;;;;;;;;;5075767;28;20544;-60
2021/12/15 00:35:06;;;;;;;40.30;24.47;;;;;;;;;;5075668;28;20200;-61
2021/12/15 00:37:32;;;;;;;36.70;23.40;;;;;;;;;;5075233;28;20200;-60
2021/12/15 00:39:58;;;;;;;38.57;23.20;;;;;;;;;;5075060;28;20235;-59
2021/12/15 00:42:24;;;;;;;36.73;23.03;;;;;;;;;;5075340;28;20203;-59
2021/12/15 00:44:50;;;;;;;37.20;24.07;;;;;;;;;;5075282;28;20206;-59
2021/12/15 00:47:16;;;;;;;40.17;25.10;;;;;;;;;;5075203;28;20203;-59
2021/12/15 00:49:44;;;;;;;38.90;23.83;;;;;;;;;;5075153;28;20227;-59
2021/12/15 00:52:11;;;;;;;37.53;23.87;;;;;;;;;;5075181;28;20212;-59
2021/12/15 00:54:38;;;;;;;42.10;23.57;;;;;;;;;;5075375;28;20242;-59
2021/12/15 00:57:04;;;;;;;35.73;23.43;;;;;;;;;;5075074;28;20563;-59
2021/12/15 00:59:31;;;;;;;35.67;23.30;;;;;;;;;;5074994;28;20666;-59
2021/12/15 01:01:57;;;;;;;38.10;22.87;;;;;;;;;;5075076;28;20609;-59
2021/12/15 01:04:24;;;;;;;35.67;23.20;;;;;;;;;;5074928;28;20214;-60
2021/12/15 01:06:53;;;;;;;35.13;23.70;;;;;;;;;;5075019;28;20200;-60
2021/12/15 01:09:24;;;;;;;38.17;23.43;;;;;;;;;;5074796;28;20230;-60
2021/12/15 01:14:34;;;;;;;37.50;22.80;;;;;;;;;;5074766;28;20203;-59
2021/12/15 01:19:51;;;;;;;37.87;24.20;;;;;;;;;;5075032;28;20241;-60
2021/12/15 01:22:20;;;;;;;40.03;24.77;;;;;;;;;;5072073;28;20210;-60
2021/12/15 01:24:46;;;;;;;41.37;25.53;;;;;;;;;;5074654;28;20325;-61
2021/12/15 01:27:13;;;;;;;37.80;22.20;;;;;;;;;;5074380;28;20199;-60
2021/12/15 01:29:39;;;;;;;41.70;24.90;;;;;;;;;;5074386;28;20224;-60
2021/12/15 01:32:05;;;;;;;40.93;24.00;;;;;;;;;;5074562;28;20253;-61
2021/12/15 01:34:31;;;;;;;41.03;24.67;;;;;;;;;;5074475;28;20202;-62
2021/12/15 01:36:57;;;;;;;41.83;25.57;;;;;;;;;;5074351;28;20602;-60
2021/12/15 01:39:25;;;;;;;42.80;25.60;;;;;;;;;;5074236;28;20251;-62
2021/12/15 01:41:55;;;;;;;44.47;24.70;;;;;;;;;;5074365;28;20207;-61
2021/12/15 01:46:56;;;;;;;42.53;24.70;;;;;;;;;;5074425;28;20206;-61
2021/12/15 01:49:26;;;;;;;39.70;22.83;;;;;;;;;;5074093;28;20305;-63
2021/12/15 01:51:52;;;;;;;41.37;24.07;;;;;;;;;;5074284;28;20264;-60
2021/12/15 01:54:18;;;;;;;37.47;24.00;;;;;;;;;;5074162;28;20253;-62
2021/12/15 01:56:46;;;;;;;40.77;24.23;;;;;;;;;;5074267;28;20246;-61
2021/12/15 01:59:13;;;;;;;38.60;24.00;;;;;;;;;;5074006;28;20234;-60
2021/12/15 02:01:39;;;;;;;39.83;25.57;;;;;;;;;;5074049;28;20200;-60
2021/12/15 02:04:07;;;;;;;39.87;25.33;;;;;;;;;;5073961;28;20282;-60
2021/12/15 02:06:33;;;;;;;37.97;23.63;;;;;;;;;;5073298;28;20729;-60
2021/12/15 02:08:59;;;;;;;40.03;25.10;;;;;;;;;;5073608;28;20731;-61
2021/12/15 02:11:25;;;;;;;38.73;24.00;;;;;;;;;;5073560;28;20195;-61
2021/12/15 02:13:53;;;;;;;38.57;24.37;;;;;;;;;;5073799;28;20197;-60
2021/12/15 02:16:19;;;;;;;37.90;23.60;;;;;;;;;;5073551;28;20208;-61
2021/12/15 02:18:45;;;;;;;39.77;24.40;;;;;;;;;;5073743;28;20283;-60
2021/12/15 02:21:15;;;;;;;35.10;23.30;;;;;;;;;;5073367;28;20191;-61
2021/12/15 02:23:49;;;;;;;35.07;23.50;;;;;;;;;;5073384;28;20721;-61
2021/12/15 02:26:17;;;;;;;34.23;22.17;;;;;;;;;;5073476;28;20203;-61
2021/12/15 02:28:47;;;;;;;34.50;22.40;;;;;;;;;;5073523;28;20245;-61
2021/12/15 02:31:22;;;;;;;32.90;21.37;;;;;;;;;;5073228;28;20277;-61
2021/12/15 02:39:11;;;;;;;38.57;24.50;;;;;;;;;;5072268;28;20222;-61
2021/12/15 02:41:38;;;;;;;41.43;23.33;;;;;;;;;;5073156;28;20207;-59
2021/12/15 02:44:05;;;;;;;38.83;23.53;;;;;;;;;;5073037;28;20199;-60
2021/12/15 02:46:32;;;;;;;41.43;24.70;;;;;;;;;;5073065;28;20198;-61
2021/12/15 02:48:58;;;;;;;41.37;24.40;;;;;;;;;;5072976;28;20199;-60
2021/12/15 02:51:26;;;;;;;39.53;24.43;;;;;;;;;;5072818;28;20231;-61
2021/12/15 02:53:53;;;;;;;38.10;23.93;;;;;;;;;;5072878;28;20719;-60
2021/12/15 02:56:19;;;;;;;41.77;24.60;;;;;;;;;;5072838;28;20199;-61
2021/12/15 02:58:52;;;;;;;45.33;25.00;;;;;;;;;;5072928;28;20199;-60
2021/12/15 03:01:29;;;;;;;39.23;23.90;;;;;;;;;;5072795;28;20591;-60
2021/12/15 03:04:11;;;;;;;41.03;24.33;;;;;;;;;;5072873;28;20226;-60
2021/12/15 03:06:55;;;;;;;42.47;24.13;;;;;;;;;;5072754;28;20276;-61
2021/12/15 03:17:36;;;;;;;46.43;26.37;;;;;;;;;;5072673;28;20241;-60
2021/12/15 03:20:02;;;;;;;46.30;26.37;;;;;;;;;;5072665;28;20573;-61
2021/12/15 03:22:30;;;;;;;43.77;25.93;;;;;;;;;;5072376;28;20198;-61
2021/12/15 03:24:56;;;;;;;48.33;26.73;;;;;;;;;;5072727;28;20674;-60
2021/12/15 03:33:13;;;;;;;47.57;25.50;;;;;;;;;;5072392;28;20286;-61
2021/12/15 03:36:13;;;;;;;46.67;25.83;;;;;;;;;;5072466;28;20194;-60
2021/12/15 03:38:33;;;;;;;42.97;24.53;;;;;;;;;;5070979;28;20707;-60
2021/12/15 03:40:59;;;;;;;48.07;26.17;;;;;;;;;;5072444;28;20199;-61
2021/12/15 03:43:25;;;;;;;42.60;25.90;;;;;;;;;;5072212;28;20256;-61
2021/12/15 03:45:52;;;;;;;46.50;26.77;;;;;;;;;;5072407;28;20192;-61
2021/12/15 03:48:21;;;;;;;46.13;25.60;;;;;;;;;;5072251;28;20218;-59
2021/12/15 03:50:48;;;;;;;39.47;25.40;;;;;;;;;;5073820;28;20242;-59
2021/12/15 03:53:14;;;;;;;45.03;27.43;;;;;;;;;;5076385;28;20195;-59
2021/12/15 03:55:42;;;;;;;41.23;25.00;;;;;;;;;;5076297;28;20560;-60
2021/12/15 03:58:11;;;;;;;44.37;25.50;;;;;;;;;;5076230;28;20207;-60
2021/12/15 04:00:39;;;;;;;39.37;25.27;;;;;;;;;;5076091;28;20568;-60
2021/12/15 04:03:05;;;;;;;37.73;24.27;;;;;;;;;;5076147;28;20195;-60
2021/12/15 04:05:32;;;;;;;44.33;24.93;;;;;;;;;;5076005;28;20630;-60
2021/12/15 04:07:58;;;;;;;43.63;25.93;;;;;;;;;;5076181;28;20257;-60
2021/12/15 04:10:25;;;;;;;42.33;25.37;;;;;;;;;;5075927;28;20564;-60
2021/12/15 04:12:53;;;;;;;37.80;24.47;;;;;;;;;;5076160;28;20282;-60
2021/12/15 04:15:28;;;;;;;39.20;24.70;;;;;;;;;;5075905;28;20203;-60
2021/12/15 04:17:55;;;;;;;35.87;23.63;;;;;;;;;;5076070;28;20218;-61
2021/12/15 04:20:22;;;;;;;36.87;23.57;;;;;;;;;;5075745;28;20686;-61
2021/12/15 04:22:49;;;;;;;38.00;23.83;;;;;;;;;;5075964;28;20199;-59
2021/12/15 04:25:19;;;;;;;38.33;23.90;;;;;;;;;;5075902;28;20225;-60
2021/12/15 04:27:52;;;;;;;34.97;22.43;;;;;;;;;;5075832;28;20204;-61
2021/12/15 04:30:19;;;;;;;34.40;22.10;;;;;;;;;;5075636;28;20223;-61
2021/12/15 04:32:46;;;;;;;35.83;22.17;;;;;;;;;;5075828;28;20207;-58
2021/12/15 04:35:13;;;;;;;35.20;22.13;;;;;;;;;;5075527;28;20199;-60
2021/12/15 04:37:39;;;;;;;33.13;21.50;;;;;;;;;;5075658;28;20202;-61
2021/12/15 04:40:07;;;;;;;31.67;22.77;;;;;;;;;;5075411;28;20314;-61
2021/12/15 04:42:33;;;;;;;31.03;20.80;;;;;;;;;;5075398;28;20223;-60
2021/12/15 04:45:00;;;;;;;34.23;21.90;;;;;;;;;;5075483;28;20249;-59
2021/12/15 04:47:27;;;;;;;33.27;21.97;;;;;;;;;;5075261;28;20192;-58
2021/12/15 04:49:54;;;;;;;33.17;21.53;;;;;;;;;;5075286;28;20231;-61
2021/12/15 04:52:22;;;;;;;35.20;22.67;;;;;;;;;;5075153;28;20206;-60
2021/12/15 04:54:48;;;;;;;34.73;23.83;;;;;;;;;;5075290;28;20278;-61
2021/12/15 04:57:15;;;;;;;34.23;22.00;;;;;;;;;;5075164;28;20245;-59
2021/12/15 04:59:41;;;;;;;34.93;21.90;;;;;;;;;;5075043;28;20218;-61
2021/12/15 05:02:08;;;;;;;38.80;23.80;;;;;;;;;;5074375;28;20204;-59
2021/12/15 05:04:36;;;;;;;30.60;21.77;;;;;;;;;;5074927;28;20526;-60
2021/12/15 05:07:02;;;;;;;34.40;21.57;;;;;;;;;;5075060;28;20199;-60
2021/12/15 05:09:28;;;;;;;34.43;23.87;;;;;;;;;;5074695;28;20234;-61
2021/12/15 05:11:54;;;;;;;36.03;23.43;;;;;;;;;;5074970;28;20215;-62
2021/12/15 05:14:21;;;;;;;34.90;22.83;;;;;;;;;;5074785;28;20195;-60
2021/12/15 05:16:47;;;;;;;31.87;22.10;;;;;;;;;;5074693;28;20226;-60
2021/12/15 05:19:14;;;;;;;33.30;22.67;;;;;;;;;;5074716;28;20203;-61
2021/12/15 05:21:41;;;;;;;31.50;21.97;;;;;;;;;;5074785;28;20609;-60
2021/12/15 05:24:30;;;;;;;33.20;22.30;;;;;;;;;;5074633;28;20621;-60
2021/12/15 05:26:56;;;;;;;33.50;23.70;;;;;;;;;;5074456;28;20203;-62
2021/12/15 05:29:22;;;;;;;35.70;23.53;;;;;;;;;;5074438;28;20252;-60
2021/12/15 05:31:48;;;;;;;34.80;21.27;;;;;;;;;;5074594;28;20199;-62
2021/12/15 05:34:14;;;;;;;32.27;22.50;;;;;;;;;;5074503;28;20199;-60
2021/12/15 05:36:42;;;;;;;33.57;23.00;;;;;;;;;;5074304;28;20206;-61
2021/12/15 05:39:08;;;;;;;33.67;23.03;;;;;;;;;;5074090;28;20737;-60
2021/12/15 05:41:35;;;;;;;30.40;21.60;;;;;;;;;;5074250;28;20287;-60
2021/12/15 05:44:01;;;;;;;34.77;22.80;;;;;;;;;;5074380;28;20203;-59
2021/12/15 05:46:27;;;;;;;33.13;22.10;;;;;;;;;;5074109;28;20203;-60
2021/12/15 05:48:53;;;;;;;33.33;20.83;;;;;;;;;;5074225;28;20203;-60
2021/12/15 05:51:19;;;;;;;27.13;19.77;;;;;;;;;;5073872;28;20223;-61
2021/12/15 05:53:47;;;;;;;31.60;22.07;;;;;;;;;;5074267;28;20662;-61
2021/12/15 05:56:13;;;;;;;32.23;21.20;;;;;;;;;;5074086;28;20209;-61
2021/12/15 05:58:40;;;;;;;31.10;20.67;;;;;;;;;;5073964;28;20184;-61
2021/12/15 06:01:07;;;;;;;30.97;21.13;;;;;;;;;;5073994;28;20530;-61
2021/12/15 06:03:33;;;;;;;30.47;20.47;;;;;;;;;;5073814;28;20697;-60
2021/12/15 06:05:59;;;;;;;33.93;22.77;;;;;;;;;;5073800;28;20289;-59
2021/12/15 06:08:25;;;;;;;35.80;23.77;;;;;;;;;;5073763;28;20199;-61
2021/12/15 06:10:53;;;;;;;37.60;25.03;;;;;;;;;;5073659;28;20219;-60
2021/12/15 06:13:22;;;;;;;35.67;23.93;;;;;;;;;;5072364;28;20215;-61
2021/12/15 06:15:49;;;;;;;37.93;24.10;;;;;;;;;;5073510;28;20203;-60
2021/12/15 06:18:16;;;;;;;34.70;24.77;;;;;;;;;;5073051;28;20195;-61
2021/12/15 06:20:42;;;;;;;37.03;24.60;;;;;;;;;;5073144;28;20187;-61
2021/12/15 06:23:12;;;;;;;35.90;25.80;;;;;;;;;;5073227;28;20192;-61
2021/12/15 06:25:39;;;;;;;37.70;26.40;;;;;;;;;;5073495;28;20209;-61
2021/12/15 06:28:06;;;;;;;34.50;23.53;;;;;;;;;;5073311;28;20559;-61
2021/12/15 06:30:33;;;;;;;39.70;24.60;;;;;;;;;;5073143;28;20230;-61
2021/12/15 06:32:59;;;;;;;39.87;24.77;;;;;;;;;;5073387;28;20218;-61
2021/12/15 06:35:25;;;;;;;39.10;24.43;;;;;;;;;;5072920;28;20206;-61
2021/12/15 06:37:51;;;;;;;39.77;25.47;;;;;;;;;;5072798;28;20195;-61
2021/12/15 06:40:17;;;;;;;39.67;25.00;;;;;;;;;;5073105;28;20290;-61
2021/12/15 06:42:43;;;;;;;37.47;24.40;;;;;;;;;;5073148;28;20295;-61
2021/12/15 06:45:15;;;;;;;38.17;24.47;;;;;;;;;;5073033;28;20206;-61
2021/12/15 06:58:40;;;;;;;44.80;26.87;;;;;;;;;;5072859;28;20248;-61
2021/12/15 07:01:09;;;;;;;38.93;25.80;;;;;;;;;;5072861;28;20282;-62
2021/12/15 07:03:35;;;;;;;41.23;25.67;;;;;;;;;;5072605;28;20573;-62
2021/12/15 07:06:01;;;;;;;43.30;26.30;;;;;;;;;;5072851;28;20227;-61
2021/12/15 07:08:28;;;;;;;42.20;26.27;;;;;;;;;;5072642;28;20282;-61
2021/12/15 07:10:55;;;;;;;42.27;25.50;;;;;;;;;;5072608;28;20308;-61
2021/12/15 07:13:21;;;;;;;40.50;25.23;;;;;;;;;;5072473;28;20195;-62
2021/12/15 07:15:48;;;;;;;43.07;26.67;;;;;;;;;;5072338;28;20677;-62
2021/12/15 07:18:26;;;;;;;41.43;25.97;;;;;;;;;;5072509;28;20564;-62
2021/12/15 07:20:54;;;;;;;39.20;24.87;;;;;;;;;;5072540;28;20270;-62
2021/12/15 07:23:22;;;;;;;37.70;25.10;;;;;;;;;;5072402;28;20286;-61
2021/12/15 07:25:49;;;;;;;39.97;25.20;;;;;;;;;;5072082;28;20195;-62
2021/12/15 07:28:16;;;;;;;42.53;26.00;;;;;;;;;;5072348;28;20237;-61
2021/12/15 07:30:42;;;;;;;42.77;26.87;;;;;;;;;;5072424;28;20228;-61
2021/12/15 07:33:09;;;;;;;43.73;26.10;;;;;;;;;;5072190;28;20294;-62
2021/12/15 07:35:37;;;;;;;40.83;26.13;;;;;;;;;;5071842;28;20208;-62
2021/12/15 07:38:03;;;;;;;41.70;26.50;;;;;;;;;;5072239;28;20270;-60
2021/12/15 07:40:29;;;;;;;39.70;24.93;;;;;;;;;;5072167;28;20195;-61
2021/12/15 07:45:33;;;;;;;42.90;25.90;;;;;;;;;;5070343;28;20258;-61
2021/12/15 07:48:01;;;;;;;41.43;27.27;;;;;;;;;;5072181;28;20666;-61
2021/12/15 07:50:28;;;;;;;45.80;26.23;;;;;;;;;;5071807;28;20297;-61
2021/12/15 07:52:55;;;;;;;40.33;27.07;;;;;;;;;;5072297;28;20222;-61
2021/12/15 07:55:21;;;;;;;42.63;26.63;;;;;;;;;;5072066;28;20206;-61
2021/12/15 07:57:47;;;;;;;39.37;24.97;;;;;;;;;;5072301;28;20298;-61
2021/12/15 08:00:14;;;;;;;37.93;26.53;;;;;;;;;;5072115;28;20283;-62
2021/12/15 08:02:41;;;;;;;47.17;28.17;;;;;;;;;;5072007;28;20608;-60
2021/12/15 08:05:07;;;;;;;40.27;26.23;;;;;;;;;;5071913;28;20593;-60
2021/12/15 08:07:33;;;;;;;41.77;27.03;;;;;;;;;;5071985;28;20279;-60
2021/12/15 08:10:03;;;;;;;41.63;26.90;;;;;;;;;;5071616;28;20322;-59
2021/12/15 08:12:29;;;;;;;35.77;25.70;;;;;;;;;;5071417;28;20682;-59
2021/12/15 08:14:55;;;;;;;41.70;27.27;;;;;;;;;;5071415;28;20270;-59
2021/12/15 08:17:21;;;;;;;37.87;25.13;;;;;;;;;;5071235;28;20223;-59
2021/12/15 08:19:47;;;;;;;42.43;26.63;;;;;;;;;;5071398;28;20678;-60
2021/12/15 08:22:13;;;;;;;40.27;27.20;;;;;;;;;;5071096;28;20203;-60
2021/12/15 08:24:39;;;;;;;41.43;26.63;;;;;;;;;;5071265;28;20248;-61
2021/12/15 08:27:06;;;;;;;37.93;26.43;;;;;;;;;;5071633;28;20203;-59
2021/12/15 08:29:32;;;;;;;40.50;27.40;;;;;;;;;;5071242;28;20670;-60
2021/12/15 08:31:59;;;;;;;43.50;29.20;;;;;;;;;;5071448;28;20202;-60
2021/12/15 08:34:25;;;;;;;39.90;27.20;;;;;;;;;;5071340;28;20732;-60
2021/12/15 08:36:52;;;;;;;40.37;27.43;;;;;;;;;;5072880;28;20199;-58
2021/12/15 08:39:19;;;;;;;38.27;25.87;;;;;;;;;;5074856;28;20239;-58
2021/12/15 08:41:45;;;;;;;39.87;27.13;;;;;;;;;;5075037;28;20210;-59
2021/12/15 08:44:12;;;;;;;41.80;28.63;;;;;;;;;;5074840;28;20681;-60
2021/12/15 08:46:40;;;;;;;39.17;27.63;;;;;;;;;;5074873;28;20275;-61
2021/12/15 08:49:08;;;;;;;39.17;26.63;;;;;;;;;;5074881;28;20721;-61
2021/12/15 08:51:35;;;;;;;38.83;27.30;;;;;;;;;;5074576;28;20724;-61
2021/12/15 08:54:03;;;;;;;36.97;26.43;;;;;;;;;;5074930;28;20212;-60
2021/12/15 08:56:40;;;;;;;39.27;26.43;;;;;;;;;;5073606;28;20241;-60
2021/12/15 08:59:06;;;;;;;36.10;25.63;;;;;;;;;;5072778;28;20283;-61
2021/12/15 09:01:34;;;;;;;38.93;27.57;;;;;;;;;;5074418;28;20204;-60
2021/12/15 09:04:00;;;;;;;41.60;28.67;;;;;;;;;;5074475;28;20657;-60
2021/12/15 09:06:26;;;;;;;38.97;28.37;;;;;;;;;;5074019;28;20761;-60
2021/12/15 09:08:53;;;;;;;33.30;25.37;;;;;;;;;;5074214;28;20196;-61
2021/12/15 09:11:25;;;;;;;37.20;27.90;;;;;;;;;;5073991;28;20311;-60
2021/12/15 09:13:52;;;;;;;37.47;27.67;;;;;;;;;;5073984;28;20200;-60
2021/12/15 09:16:19;;;;;;;33.50;25.57;;;;;;;;;;5073957;28;20208;-61
2021/12/15 09:18:46;;;;;;;35.40;27.93;;;;;;;;;;5073983;28;20210;-60
2021/12/15 09:21:13;;;;;;;35.07;26.97;;;;;;;;;;5073886;28;20278;-61
2021/12/15 09:23:40;;;;;;;34.17;25.87;;;;;;;;;;5073824;28;20200;-60
2021/12/15 09:26:07;;;;;;;33.93;25.60;;;;;;;;;;5074039;28;20249;-60
2021/12/15 09:28:34;;;;;;;34.50;25.33;;;;;;;;;;5073637;28;20200;-60
2021/12/15 09:31:01;;;;;;;36.40;26.47;;;;;;;;;;5073499;28;20711;-60
2021/12/15 09:33:29;;;;;;;33.20;26.47;;;;;;;;;;5073626;28;20211;-60
2021/12/15 09:35:57;;;;;;;32.03;25.33;;;;;;;;;;5073613;28;20233;-60
2021/12/15 09:38:23;;;;;;;32.50;24.63;;;;;;;;;;5073401;28;20376;-60
2021/12/15 09:40:51;;;;;;;32.60;25.93;;;;;;;;;;5073467;28;20646;-60
2021/12/15 09:43:17;;;;;;;31.67;25.20;;;;;;;;;;5073430;28;20198;-59
2021/12/15 09:46:00;;;;;;;31.33;24.90;;;;;;;;;;5073591;28;20261;-60
2021/12/15 10:02:16;;;;;;;32.03;25.13;;;;;;;;;;5073504;28;20257;-60
2021/12/15 10:04:56;;;;;;;34.20;24.73;;;;;;;;;;5073262;28;20561;-59
2021/12/15 10:19:19;;;;;;;31.33;24.43;;;;;;;;;;5073091;28;20191;-60
2021/12/15 10:21:55;;;;;;;31.87;23.97;;;;;;;;;;5073019;28;20249;-62
2021/12/15 10:24:27;;;;;;;30.67;24.90;;;;;;;;;;5072987;28;20210;-60
2021/12/15 10:26:54;;;;;;;31.77;24.73;;;;;;;;;;5073009;28;20204;-60
2021/12/15 10:29:21;;;;;;;31.03;23.67;;;;;;;;;;5072408;28;20673;-60
2021/12/15 10:31:56;;;;;;;28.60;24.00;;;;;;;;;;5072615;28;20253;-60
2021/12/15 10:34:23;;;;;;;32.63;24.60;;;;;;;;;;5072539;28;20244;-60
2021/12/15 10:36:49;;;;;;;26.97;23.33;;;;;;;;;;5072562;28;20215;-60
2021/12/15 10:39:15;;;;;;;31.60;24.90;;;;;;;;;;5070678;28;20293;-61
2021/12/15 10:41:44;;;;;;;27.97;23.20;;;;;;;;;;5072581;28;20270;-60
2021/12/15 10:44:12;;;;;;;28.13;22.47;;;;;;;;;;5072480;28;20200;-60
2021/12/15 10:46:41;;;;;;;31.00;23.87;;;;;;;;;;5072062;28;20215;-61
2021/12/15 10:49:08;;;;;;;30.10;23.60;;;;;;;;;;5071932;28;20269;-62
2021/12/15 10:51:39;;;;;;;28.63;23.87;;;;;;;;;;5071969;28;20231;-59
2021/12/15 10:54:07;;;;;;;32.57;23.80;;;;;;;;;;5071873;28;20530;-60
2021/12/15 10:56:34;;;;;;;29.97;22.83;;;;;;;;;;5072196;28;20211;-60
2021/12/15 10:59:03;;;;;;;29.07;23.27;;;;;;;;;;5071635;28;20632;-62
2021/12/15 11:01:36;;;;;;;29.67;23.03;;;;;;;;;;5072084;28;20206;-60
2021/12/15 11:04:02;;;;;;;25.40;21.13;;;;;;;;;;5071710;28;20704;-60
2021/12/15 11:06:33;;;;;;;28.17;22.07;;;;;;;;;;5071809;28;20689;-58
2021/12/15 11:09:16;;;;;;;27.03;21.73;;;;;;;;;;5072275;28;20230;-60
2021/12/15 11:11:55;;;;;;;25.47;21.43;;;;;;;;;;5072196;28;20314;-60
2021/12/15 11:14:29;;;;;;;29.73;23.10;;;;;;;;;;5070230;28;20206;-60
2021/12/15 11:17:02;;;;;;;30.50;23.60;;;;;;;;;;5071980;28;20233;-59
2021/12/15 11:19:39;;;;;;;28.60;22.93;;;;;;;;;;5071783;28;20249;-60
2021/12/15 11:22:20;;;;;;;26.10;22.70;;;;;;;;;;5070187;28;20191;-60
2021/12/15 11:24:46;;;;;;;28.27;21.97;;;;;;;;;;5071466;28;20261;-60
2021/12/15 11:27:15;;;;;;;25.67;21.23;;;;;;;;;;5071862;28;20195;-61
2021/12/15 11:29:43;;;;;;;27.13;21.73;;;;;;;;;;5071751;28;20871;-60
2021/12/15 11:32:29;;;;;;;26.60;22.07;;;;;;;;;;5071598;28;20709;-60
2021/12/15 11:35:01;;;;;;;25.87;21.80;;;;;;;;;;5071558;28;20597;-60
2021/12/15 11:37:42;;;;;;;26.03;20.83;;;;;;;;;;5071584;28;20661;-60
2021/12/15 11:40:09;;;;;;;25.67;20.73;;;;;;;;;;5071707;28;20206;-60
2021/12/15 11:42:37;;;;;;;24.87;20.63;;;;;;;;;;5071691;28;20199;-61
2021/12/15 11:45:06;;;;;;;27.43;21.90;;;;;;;;;;5071780;28;20203;-60
2021/12/15 11:47:33;;;;;;;27.53;20.97;;;;;;;;;;5071555;28;20259;-61
2021/12/15 11:50:06;;;;;;;24.93;20.87;;;;;;;;;;5071430;28;20203;-60
2021/12/15 11:52:37;;;;;;;24.43;20.63;;;;;;;;;;5071558;28;20199;-62
2021/12/15 11:55:04;;;;;;;24.33;19.97;;;;;;;;;;5071654;28;20233;-60
2021/12/15 11:57:30;;;;;;;25.37;21.07;;;;;;;;;;5071444;28;20195;-60
2021/12/15 11:59:59;;;;;;;25.90;20.43;;;;;;;;;;5071414;28;20206;-61
2021/12/15 12:02:27;;;;;;;25.37;19.30;;;;;;;;;;5071437;28;20199;-60
2021/12/15 12:04:54;;;;;;;22.83;19.60;;;;;;;;;;5071421;28;20226;-60
2021/12/15 12:07:23;;;;;;;25.77;19.40;;;;;;;;;;5071523;28;20203;-60
2021/12/15 12:09:50;;;;;;;28.07;20.80;;;;;;;;;;5071509;28;20274;-61
2021/12/15 12:12:17;;;;;;;25.00;20.37;;;;;;;;;;5073730;28;20208;-61
2021/12/15 12:14:50;;;;;;;24.63;19.17;;;;;;;;;;5075874;28;20195;-61
2021/12/15 12:17:17;;;;;;;24.67;19.33;;;;;;;;;;5075433;28;20282;-60
2021/12/15 12:19:47;;;;;;;24.33;20.40;;;;;;;;;;5075502;28;20608;-60
2021/12/15 12:22:14;;;;;;;22.33;19.37;;;;;;;;;;5075284;28;20207;-60
2021/12/15 12:24:43;;;;;;;23.70;19.10;;;;;;;;;;5075203;28;20200;-61
2021/12/15 12:27:09;;;;;;;23.10;19.67;;;;;;;;;;5075013;28;20209;-60
2021/12/15 12:29:35;;;;;;;23.17;19.30;;;;;;;;;;5075332;28;20195;-60
2021/12/15 12:32:01;;;;;;;22.33;17.63;;;;;;;;;;5075273;28;20254;-61
2021/12/15 12:34:27;;;;;;;23.37;19.47;;;;;;;;;;5074951;28;20645;-61
2021/12/15 12:36:55;;;;;;;21.53;18.10;;;;;;;;;;5075133;28;20246;-61
2021/12/15 12:39:29;;;;;;;23.57;19.03;;;;;;;;;;5074695;28;20235;-61
2021/12/15 12:41:55;;;;;;;26.57;20.10;;;;;;;;;;5075035;28;20282;-61
2021/12/15 12:44:21;;;;;;;26.33;20.30;;;;;;;;;;5074800;28;20199;-61
2021/12/15 12:46:55;;;;;;;23.67;19.07;;;;;;;;;;5074997;28;20200;-61
2021/12/15 12:49:57;;;;;;;25.20;19.97;;;;;;;;;;5074670;28;20282;-59
2021/12/15 13:00:37;;;;;;;21.63;18.87;;;;;;;;;;5074369;28;20279;-61
2021/12/15 13:03:06;;;;;;;25.50;19.00;;;;;;;;;;5074518;28;20199;-61
2021/12/15 13:05:35;;;;;;;25.00;19.80;;;;;;;;;;5074157;28;20211;-61
2021/12/15 13:08:04;;;;;;;25.80;20.10;;;;;;;;;;5074541;28;20214;-61
2021/12/15 13:10:48;;;;;;;24.30;19.37;;;;;;;;;;5074295;28;20226;-61
2021/12/15 13:13:15;;;;;;;25.53;20.23;;;;;;;;;;5074392;28;20199;-61
2021/12/15 13:15:41;;;;;;;26.43;21.10;;;;;;;;;;5074016;28;20206;-61
2021/12/15 13:18:12;;;;;;;23.73;19.80;;;;;;;;;;5074200;28;20265;-61
2021/12/15 13:20:38;;;;;;;27.80;20.57;;;;;;;;;;5074180;28;20204;-61
2021/12/15 13:31:11;;;;;;;25.77;20.60;;;;;;;;;;5073916;28;20280;-61
2021/12/15 13:33:46;;;;;;;24.10;19.67;;;;;;;;;;5073912;28;20203;-61
2021/12/15 13:36:17;;;;;;;24.87;18.83;;;;;;;;;;5073979;28;20214;-61
2021/12/15 13:38:46;;;;;;;24.47;19.23;;;;;;;;;;5073467;28;20315;-60
2021/12/15 13:41:21;;;;;;;24.10;19.73;;;;;;;;;;5073855;28;20566;-61
2021/12/15 13:43:50;;;;;;;24.57;18.70;;;;;;;;;;5073796;28;20202;-60
2021/12/15 13:46:24;;;;;;;23.50;19.73;;;;;;;;;;5073724;28;20202;-60
2021/12/15 13:49:11;;;;;;;27.07;19.63;;;;;;;;;;5073595;28;20615;-60
2021/12/15 13:51:55;;;;;;;26.50;18.97;;;;;;;;;;5068585;28;20223;-58
2021/12/15 13:54:44;;;;;;;23.57;18.03;;;;;;;;;;5073539;28;20188;-61
2021/12/15 13:57:16;;;;;;;25.00;18.27;;;;;;;;;;5073366;28;20306;-59
2021/12/15 13:59:43;;;;;;;22.70;17.03;;;;;;;;;;5073326;28;20666;-59
2021/12/15 14:02:11;;;;;;;27.07;19.57;;;;;;;;;;5073330;28;20192;-62
2021/12/15 14:04:43;;;;;;;25.80;18.37;;;;;;;;;;5073450;28;20196;-59
2021/12/15 14:07:27;;;;;;;26.50;20.10;;;;;;;;;;5073193;28;20198;-60
2021/12/15 14:09:58;;;;;;;23.10;19.27;;;;;;;;;;5063364;28;20256;-60
2021/12/15 14:12:43;;;;;;;22.93;17.67;;;;;;;;;;5069662;28;20216;-60
2021/12/15 14:15:09;;;;;;;26.77;18.47;;;;;;;;;;5068831;28;20241;-60
2021/12/15 14:17:35;;;;;;;22.63;18.13;;;;;;;;;;5072893;28;20693;-61
2021/12/15 14:20:08;;;;;;;24.63;18.23;;;;;;;;;;5073494;28;20535;-62
2021/12/15 14:22:34;;;;;;;22.33;17.40;;;;;;;;;;5073352;28;20187;-63
2021/12/15 14:25:02;;;;;;;23.70;17.57;;;;;;;;;;5073334;28;20202;-62
2021/12/15 14:27:28;;;;;;;25.07;18.27;;;;;;;;;;5073100;28;20226;-61
2021/12/15 14:29:54;;;;;;;23.33;18.40;;;;;;;;;;5073019;28;20672;-61
2021/12/15 14:32:24;;;;;;;25.13;19.00;;;;;;;;;;5073017;28;20223;-61
2021/12/15 14:34:50;;;;;;;23.47;17.30;;;;;;;;;;5071700;28;20199;-60
2021/12/15 14:37:18;;;;;;;22.53;17.63;;;;;;;;;;5072900;28;20651;-60
2021/12/15 14:39:45;;;;;;;25.20;18.83;;;;;;;;;;5072614;28;20246;-60
2021/12/15 14:42:14;;;;;;;25.47;18.23;;;;;;;;;;5072727;28;20217;-61
2021/12/15 14:44:41;;;;;;;25.27;18.17;;;;;;;;;;5072604;28;20200;-60
2021/12/15 14:47:09;;;;;;;22.83;18.10;;;;;;;;;;5072659;28;20295;-61
2021/12/15 14:49:36;;;;;;;28.17;19.00;;;;;;;;;;5072403;28;20196;-61
2021/12/15 14:52:04;;;;;;;24.37;18.70;;;;;;;;;;5072174;28;20231;-61
2021/12/15 14:54:30;;;;;;;23.43;18.13;;;;;;;;;;5072157;28;20210;-59
2021/12/15 14:56:58;;;;;;;23.20;18.37;;;;;;;;;;5070570;28;20750;-60
2021/12/15 14:59:29;;;;;;;25.00;18.57;;;;;;;;;;5071220;28;20200;-60
2021/12/15 15:01:59;;;;;;;22.80;17.43;;;;;;;;;;5072199;28;20191;-61
2021/12/15 15:04:26;;;;;;;24.63;18.20;;;;;;;;;;5072086;28;20196;-60
2021/12/15 15:06:54;;;;;;;26.03;18.53;;;;;;;;;;5071896;28;20249;-60
2021/12/15 15:09:22;;;;;;;25.60;18.47;;;;;;;;;;5071861;28;20196;-61
2021/12/15 15:11:50;;;;;;;23.27;17.30;;;;;;;;;;5070517;28;20357;-60
2021/12/15 15:14:24;;;;;;;25.10;17.97;;;;;;;;;;5072020;28;20614;-62
2021/12/15 15:16:52;;;;;;;22.87;17.90;;;;;;;;;;5071975;28;20196;-59
2021/12/15 15:19:19;;;;;;;24.70;17.40;;;;;;;;;;5071970;28;20211;-60
2021/12/15 15:21:45;;;;;;;25.83;19.30;;;;;;;;;;5071946;28;20356;-61
2021/12/15 15:24:23;;;;;;;23.77;18.40;;;;;;;;;;5072079;28;20293;-60
2021/12/15 15:26:53;;;;;;;23.97;18.20;;;;;;;;;;5072004;28;20233;-60
2021/12/15 15:29:27;;;;;;;25.17;17.97;;;;;;;;;;5072123;28;20247;-60
2021/12/15 15:31:54;;;;;;;23.50;18.43;;;;;;;;;;5071501;28;20235;-60
2021/12/15 15:34:25;;;;;;;21.87;17.00;;;;;;;;;;5071688;28;20262;-61
2021/12/15 15:36:51;;;;;;;24.23;17.03;;;;;;;;;;5071710;28;20668;-61
2021/12/15 15:39:17;;;;;;;21.17;16.30;;;;;;;;;;5071973;28;20242;-60
2021/12/15 15:41:47;;;;;;;20.60;16.97;;;;;;;;;;5071664;28;20282;-59
2021/12/15 15:44:13;;;;;;;24.50;17.50;;;;;;;;;;5071828;28;20195;-61
2021/12/15 15:46:40;;;;;;;23.87;17.87;;;;;;;;;;5076952;28;20221;-61